sensor_id;sensor_type;location;lat;lon;timestamp;P1;durP1;ratioP1;P2;durP2;ratioP2
16524;SDS011;8375;33.594;-117.718;2022-12-18T00:00:08;2.33;;;1.40;;
16524;SDS011;8375;33.594;-117.718;2022-12-18T00:02:37;3.03;;;1.47;;
16524;SDS011;8375;33.594;-117.718;2022-12-18T00:05:07;2.03;;;1.37;;
16524;SDS011;8375;33.594;-117.718;2022-12-18T00:07:36;2.67;;;1.67;;
16524;SDS011;8375;33.594;-117.718;2022-12-18T00:10:05;2.33;;;1.70;;
16524;SDS011;8375;33.594;-117.718;2022-12-18T00:12:34;2.37;;;1.40;;
16524;SDS011;8375;33.594;-117.718;2022-12-18T00:15:03;3.50;;;1.70;;
16524;SDS011;8375;33.594;-117.718;2022-12-18T00:17:32;3.03;;;1.53;;
16524;SDS011;8375;33.594;-117.718;2022-12-18T00:20:01;4.83;;;1.60;;
16524;SDS011;8375;33.594;-117.718;2022-12-18T00:22:31;2.37;;;1.67;;
16524;SDS011;8375;33.594;-117.718;2022-12-18T00:25:00;2.60;;;1.47;;
16524;SDS011;8375;33.594;-117.718;2022-12-18T00:27:29;2.00;;;1.70;;
16524;SDS011;8375;33.594;-117.718;2022-12-18T00:29:57;6.23;;;1.80;;
16524;SDS011;8375;33.594;-117.718;2022-12-18T00:32:26;4.73;;;1.83;;
16524;SDS011;8375;33.594;-117.718;2022-12-18T00:34:54;2.87;;;1.90;;
16524;SDS011;8375;33.594;-117.718;2022-12-18T00:37:23;2.57;;;1.47;;
16524;SDS011;8375;33.594;-117.718;2022-12-18T00:39:53;3.67;;;1.87;;
16524;SDS011;8375;33.594;-117.718;2022-12-18T00:42:22;2.53;;;1.80;;
16524;SDS011;8375;33.594;-117.718;2022-12-18T00:45:07;6.93;;;1.87;;
16524;SDS011;8375;33.594;-117.718;2022-12-18T00:47:36;6.97;;;1.60;;
16524;SDS011;8375;33.594;-117.718;2022-12-18T00:50:05;4.03;;;1.60;;
16524;SDS011;8375;33.594;-117.718;2022-12-18T00:52:35;2.20;;;1.40;;
16524;SDS011;8375;33.594;-117.718;2022-12-18T00:55:05;2.80;;;1.60;;
16524;SDS011;8375;33.594;-117.718;2022-12-18T00:57:34;3.43;;;1.67;;
16524;SDS011;8375;33.594;-117.718;2022-12-18T01:00:03;4.17;;;1.70;;
16524;SDS011;8375;33.594;-117.718;2022-12-18T01:02:33;4.00;;;1.90;;
16524;SDS011;8375;33.594;-117.718;2022-12-18T01:05:02;4.97;;;1.80;;
16524;SDS011;8375;33.594;-117.718;2022-12-18T01:07:31;3.00;;;1.60;;
16524;SDS011;8375;33.594;-117.718;2022-12-18T01:09:59;3.67;;;1.97;;
16524;SDS011;8375;33.594;-117.718;2022-12-18T01:12:29;3.67;;;1.97;;
16524;SDS011;8375;33.594;-117.718;2022-12-18T01:14:58;3.63;;;2.00;;
16524;SDS011;8375;33.594;-117.718;2022-12-18T01:17:26;4.17;;;1.80;;
16524;SDS011;8375;33.594;-117.718;2022-12-18T01:19:55;2.67;;;1.90;;
16524;SDS011;8375;33.594;-117.718;2022-12-18T01:22:24;4.87;;;1.70;;
16524;SDS011;8375;33.594;-117.718;2022-12-18T01:24:52;2.50;;;1.70;;
16524;SDS011;8375;33.594;-117.718;2022-12-18T01:27:21;2.67;;;1.60;;
16524;SDS011;8375;33.594;-117.718;2022-12-18T01:29:51;4.13;;;1.67;;
16524;SDS011;8375;33.594;-117.718;2022-12-18T01:32:20;1.73;;;1.57;;
16524;SDS011;8375;33.594;-117.718;2022-12-18T01:34:49;2.30;;;1.60;;
16524;SDS011;8375;33.594;-117.718;2022-12-18T01:37:17;2.93;;;2.00;;
16524;SDS011;8375;33.594;-117.718;2022-12-18T01:39:46;2.97;;;1.70;;
16524;SDS011;8375;33.594;-117.718;2022-12-18T01:42:15;3.83;;;2.57;;
16524;SDS011;8375;33.594;-117.718;2022-12-18T01:44:57;4.43;;;3.10;;
16524;SDS011;8375;33.594;-117.718;2022-12-18T01:47:50;3.07;;;2.67;;
16524;SDS011;8375;33.594;-117.718;2022-12-18T01:50:20;5.93;;;2.23;;
16524;SDS011;8375;33.594;-117.718;2022-12-18T01:52:51;4.47;;;2.17;;
16524;SDS011;8375;33.594;-117.718;2022-12-18T01:55:23;3.10;;;2.00;;
16524;SDS011;8375;33.594;-117.718;2022-12-18T01:57:54;3.23;;;2.10;;
16524;SDS011;8375;33.594;-117.718;2022-12-18T02:00:27;3.23;;;1.90;;
16524;SDS011;8375;33.594;-117.718;2022-12-18T02:02:56;4.00;;;2.10;;
16524;SDS011;8375;33.594;-117.718;2022-12-18T02:05:29;3.27;;;2.30;;
16524;SDS011;8375;33.594;-117.718;2022-12-18T02:08:09;2.80;;;2.00;;
16524;SDS011;8375;33.594;-117.718;2022-12-18T02:10:45;2.73;;;2.13;;
16524;SDS011;8375;33.594;-117.718;2022-12-18T02:13:20;6.60;;;2.43;;
16524;SDS011;8375;33.594;-117.718;2022-12-18T02:15:58;3.20;;;2.00;;
16524;SDS011;8375;33.594;-117.718;2022-12-18T02:18:30;2.27;;;2.07;;
16524;SDS011;8375;33.594;-117.718;2022-12-18T02:21:04;2.87;;;1.93;;
16524;SDS011;8375;33.594;-117.718;2022-12-18T02:23:44;2.80;;;2.00;;
16524;SDS011;8375;33.594;-117.718;2022-12-18T02:26:21;4.90;;;2.23;;
16524;SDS011;8375;33.594;-117.718;2022-12-18T02:28:57;3.40;;;2.20;;
16524;SDS011;8375;33.594;-117.718;2022-12-18T02:31:30;3.83;;;3.00;;
16524;SDS011;8375;33.594;-117.718;2022-12-18T02:34:04;5.33;;;3.60;;
16524;SDS011;8375;33.594;-117.718;2022-12-18T02:36:36;5.20;;;3.30;;
16524;SDS011;8375;33.594;-117.718;2022-12-18T02:39:07;4.50;;;2.70;;
16524;SDS011;8375;33.594;-117.718;2022-12-18T02:41:41;3.93;;;2.60;;
16524;SDS011;8375;33.594;-117.718;2022-12-18T02:44:11;5.70;;;2.63;;
16524;SDS011;8375;33.594;-117.718;2022-12-18T02:46:42;7.63;;;2.50;;
16524;SDS011;8375;33.594;-117.718;2022-12-18T02:49:20;4.47;;;2.10;;
16524;SDS011;8375;33.594;-117.718;2022-12-18T02:51:55;6.37;;;2.50;;
16524;SDS011;8375;33.594;-117.718;2022-12-18T02:54:34;7.53;;;3.20;;
16524;SDS011;8375;33.594;-117.718;2022-12-18T02:57:18;6.17;;;3.40;;
16524;SDS011;8375;33.594;-117.718;2022-12-18T02:59:55;4.47;;;3.07;;
16524;SDS011;8375;33.594;-117.718;2022-12-18T03:02:38;7.70;;;3.07;;
16524;SDS011;8375;33.594;-117.718;2022-12-18T03:05:14;5.73;;;3.30;;
16524;SDS011;8375;33.594;-117.718;2022-12-18T03:07:46;4.80;;;2.97;;
16524;SDS011;8375;33.594;-117.718;2022-12-18T03:10:19;5.67;;;3.00;;
16524;SDS011;8375;33.594;-117.718;2022-12-18T03:12:54;5.57;;;2.87;;
16524;SDS011;8375;33.594;-117.718;2022-12-18T03:15:30;7.53;;;3.10;;
16524;SDS011;8375;33.594;-117.718;2022-12-18T03:18:04;5.27;;;3.07;;
16524;SDS011;8375;33.594;-117.718;2022-12-18T03:20:35;4.50;;;2.77;;
16524;SDS011;8375;33.594;-117.718;2022-12-18T03:23:07;6.97;;;3.07;;
16524;SDS011;8375;33.594;-117.718;2022-12-18T03:25:40;7.97;;;3.17;;
16524;SDS011;8375;33.594;-117.718;2022-12-18T03:28:14;5.13;;;2.93;;
16524;SDS011;8375;33.594;-117.718;2022-12-18T03:30:47;5.57;;;2.83;;
16524;SDS011;8375;33.594;-117.718;2022-12-18T03:33:24;3.17;;;2.77;;
16524;SDS011;8375;33.594;-117.718;2022-12-18T03:35:57;4.17;;;2.80;;
16524;SDS011;8375;33.594;-117.718;2022-12-18T03:38:28;5.67;;;2.83;;
16524;SDS011;8375;33.594;-117.718;2022-12-18T03:40:58;5.03;;;3.07;;
16524;SDS011;8375;33.594;-117.718;2022-12-18T03:43:37;4.57;;;2.93;;
16524;SDS011;8375;33.594;-117.718;2022-12-18T03:46:17;5.37;;;3.20;;
16524;SDS011;8375;33.594;-117.718;2022-12-18T03:48:54;6.07;;;3.00;;
16524;SDS011;8375;33.594;-117.718;2022-12-18T03:51:31;5.37;;;3.50;;
16524;SDS011;8375;33.594;-117.718;2022-12-18T03:54:08;8.07;;;4.03;;
16524;SDS011;8375;33.594;-117.718;2022-12-18T03:56:38;5.57;;;3.73;;
16524;SDS011;8375;33.594;-117.718;2022-12-18T03:59:13;5.03;;;3.50;;
16524;SDS011;8375;33.594;-117.718;2022-12-18T04:01:45;5.30;;;3.70;;
16524;SDS011;8375;33.594;-117.718;2022-12-18T04:04:16;4.97;;;3.40;;
16524;SDS011;8375;33.594;-117.718;2022-12-18T04:06:46;6.33;;;3.43;;
16524;SDS011;8375;33.594;-117.718;2022-12-18T04:09:17;5.77;;;3.20;;
16524;SDS011;8375;33.594;-117.718;2022-12-18T04:11:46;4.67;;;3.90;;
16524;SDS011;8375;33.594;-117.718;2022-12-18T04:14:17;6.47;;;3.90;;
16524;SDS011;8375;33.594;-117.718;2022-12-18T04:16:45;5.13;;;3.60;;
16524;SDS011;8375;33.594;-117.718;2022-12-18T04:19:14;5.73;;;3.77;;
16524;SDS011;8375;33.594;-117.718;2022-12-18T04:21:43;4.63;;;3.33;;
16524;SDS011;8375;33.594;-117.718;2022-12-18T04:24:11;5.93;;;3.70;;
16524;SDS011;8375;33.594;-117.718;2022-12-18T04:26:40;4.60;;;2.87;;
16524;SDS011;8375;33.594;-117.718;2022-12-18T04:29:08;5.13;;;2.80;;
16524;SDS011;8375;33.594;-117.718;2022-12-18T04:31:39;8.30;;;3.00;;
16524;SDS011;8375;33.594;-117.718;2022-12-18T04:34:07;4.77;;;2.60;;
16524;SDS011;8375;33.594;-117.718;2022-12-18T04:36:36;3.40;;;3.10;;
16524;SDS011;8375;33.594;-117.718;2022-12-18T04:39:05;4.80;;;2.70;;
16524;SDS011;8375;33.594;-117.718;2022-12-18T04:41:33;3.30;;;2.53;;
16524;SDS011;8375;33.594;-117.718;2022-12-18T04:44:02;3.97;;;2.60;;
16524;SDS011;8375;33.594;-117.718;2022-12-18T04:46:30;4.57;;;2.50;;
16524;SDS011;8375;33.594;-117.718;2022-12-18T04:49:01;4.27;;;2.90;;
16524;SDS011;8375;33.594;-117.718;2022-12-18T04:51:29;6.40;;;4.37;;
16524;SDS011;8375;33.594;-117.718;2022-12-18T04:53:58;7.80;;;4.53;;
16524;SDS011;8375;33.594;-117.718;2022-12-18T04:56:26;10.90;;;4.70;;
16524;SDS011;8375;33.594;-117.718;2022-12-18T04:58:55;7.13;;;4.63;;
16524;SDS011;8375;33.594;-117.718;2022-12-18T05:01:24;6.40;;;3.80;;
16524;SDS011;8375;33.594;-117.718;2022-12-18T05:03:52;8.93;;;4.27;;
16524;SDS011;8375;33.594;-117.718;2022-12-18T05:06:22;6.87;;;4.27;;
16524;SDS011;8375;33.594;-117.718;2022-12-18T05:08:51;5.73;;;3.83;;
16524;SDS011;8375;33.594;-117.718;2022-12-18T05:11:19;5.23;;;4.20;;
16524;SDS011;8375;33.594;-117.718;2022-12-18T05:13:48;8.13;;;4.00;;
16524;SDS011;8375;33.594;-117.718;2022-12-18T05:16:17;8.37;;;4.00;;
16524;SDS011;8375;33.594;-117.718;2022-12-18T05:18:46;4.23;;;3.43;;
16524;SDS011;8375;33.594;-117.718;2022-12-18T05:21:14;7.07;;;3.67;;
16524;SDS011;8375;33.594;-117.718;2022-12-18T05:23:44;6.57;;;4.07;;
16524;SDS011;8375;33.594;-117.718;2022-12-18T05:26:14;8.57;;;4.80;;
16524;SDS011;8375;33.594;-117.718;2022-12-18T05:28:45;5.63;;;3.63;;
16524;SDS011;8375;33.594;-117.718;2022-12-18T05:31:14;5.13;;;3.90;;
16524;SDS011;8375;33.594;-117.718;2022-12-18T05:33:43;5.23;;;3.13;;
16524;SDS011;8375;33.594;-117.718;2022-12-18T05:36:11;6.27;;;3.50;;
16524;SDS011;8375;33.594;-117.718;2022-12-18T05:38:40;5.73;;;3.13;;
16524;SDS011;8375;33.594;-117.718;2022-12-18T05:41:10;6.40;;;3.30;;
16524;SDS011;8375;33.594;-117.718;2022-12-18T05:43:39;6.73;;;2.83;;
16524;SDS011;8375;33.594;-117.718;2022-12-18T05:46:08;4.70;;;3.37;;
16524;SDS011;8375;33.594;-117.718;2022-12-18T05:48:39;5.57;;;3.50;;
16524;SDS011;8375;33.594;-117.718;2022-12-18T05:51:08;4.03;;;3.20;;
16524;SDS011;8375;33.594;-117.718;2022-12-18T05:53:38;5.73;;;3.17;;
16524;SDS011;8375;33.594;-117.718;2022-12-18T05:56:07;4.23;;;2.90;;
16524;SDS011;8375;33.594;-117.718;2022-12-18T05:58:38;4.63;;;3.00;;
16524;SDS011;8375;33.594;-117.718;2022-12-18T06:01:08;5.70;;;2.60;;
16524;SDS011;8375;33.594;-117.718;2022-12-18T06:03:38;4.87;;;3.03;;
16524;SDS011;8375;33.594;-117.718;2022-12-18T06:06:12;4.03;;;3.27;;
16524;SDS011;8375;33.594;-117.718;2022-12-18T06:08:42;6.60;;;3.57;;
16524;SDS011;8375;33.594;-117.718;2022-12-18T06:11:12;3.93;;;3.20;;
16524;SDS011;8375;33.594;-117.718;2022-12-18T06:13:43;3.80;;;3.40;;
16524;SDS011;8375;33.594;-117.718;2022-12-18T06:16:12;5.70;;;3.60;;
16524;SDS011;8375;33.594;-117.718;2022-12-18T06:18:41;4.43;;;3.40;;
16524;SDS011;8375;33.594;-117.718;2022-12-18T06:21:09;4.80;;;3.33;;
16524;SDS011;8375;33.594;-117.718;2022-12-18T06:23:38;9.10;;;4.63;;
16524;SDS011;8375;33.594;-117.718;2022-12-18T06:26:08;7.93;;;5.90;;
16524;SDS011;8375;33.594;-117.718;2022-12-18T06:28:39;10.73;;;5.67;;
16524;SDS011;8375;33.594;-117.718;2022-12-18T06:31:08;8.70;;;5.33;;
16524;SDS011;8375;33.594;-117.718;2022-12-18T06:33:37;8.33;;;5.37;;
16524;SDS011;8375;33.594;-117.718;2022-12-18T06:36:06;8.97;;;5.30;;
16524;SDS011;8375;33.594;-117.718;2022-12-18T06:38:37;9.83;;;5.37;;
16524;SDS011;8375;33.594;-117.718;2022-12-18T06:41:06;8.63;;;5.80;;
16524;SDS011;8375;33.594;-117.718;2022-12-18T06:43:35;10.10;;;5.53;;
16524;SDS011;8375;33.594;-117.718;2022-12-18T06:46:06;11.90;;;6.07;;
16524;SDS011;8375;33.594;-117.718;2022-12-18T06:48:35;11.37;;;6.87;;
16524;SDS011;8375;33.594;-117.718;2022-12-18T06:51:03;10.93;;;6.93;;
16524;SDS011;8375;33.594;-117.718;2022-12-18T06:53:32;10.60;;;6.73;;
16524;SDS011;8375;33.594;-117.718;2022-12-18T06:56:01;11.00;;;5.70;;
16524;SDS011;8375;33.594;-117.718;2022-12-18T06:58:30;9.27;;;6.40;;
16524;SDS011;8375;33.594;-117.718;2022-12-18T07:01:02;7.67;;;5.93;;
16524;SDS011;8375;33.594;-117.718;2022-12-18T07:03:33;10.73;;;6.60;;
16524;SDS011;8375;33.594;-117.718;2022-12-18T07:06:01;7.07;;;6.30;;
16524;SDS011;8375;33.594;-117.718;2022-12-18T07:08:30;11.27;;;7.20;;
16524;SDS011;8375;33.594;-117.718;2022-12-18T07:11:02;8.90;;;5.87;;
16524;SDS011;8375;33.594;-117.718;2022-12-18T07:13:31;9.07;;;6.03;;
16524;SDS011;8375;33.594;-117.718;2022-12-18T07:16:03;8.03;;;6.40;;
16524;SDS011;8375;33.594;-117.718;2022-12-18T07:18:35;10.60;;;6.77;;
16524;SDS011;8375;33.594;-117.718;2022-12-18T07:21:04;9.27;;;6.80;;
16524;SDS011;8375;33.594;-117.718;2022-12-18T07:23:34;9.67;;;6.70;;
16524;SDS011;8375;33.594;-117.718;2022-12-18T07:26:03;9.83;;;6.67;;
16524;SDS011;8375;33.594;-117.718;2022-12-18T07:28:34;9.50;;;7.20;;
16524;SDS011;8375;33.594;-117.718;2022-12-18T07:31:03;11.07;;;6.77;;
16524;SDS011;8375;33.594;-117.718;2022-12-18T07:33:33;10.10;;;7.03;;
16524;SDS011;8375;33.594;-117.718;2022-12-18T07:36:04;9.20;;;7.27;;
16524;SDS011;8375;33.594;-117.718;2022-12-18T07:38:34;10.43;;;7.20;;
16524;SDS011;8375;33.594;-117.718;2022-12-18T07:41:04;9.43;;;6.70;;
16524;SDS011;8375;33.594;-117.718;2022-12-18T07:43:33;11.10;;;7.17;;
16524;SDS011;8375;33.594;-117.718;2022-12-18T07:46:02;11.87;;;6.93;;
16524;SDS011;8375;33.594;-117.718;2022-12-18T07:48:31;11.13;;;6.60;;
16524;SDS011;8375;33.594;-117.718;2022-12-18T07:51:02;15.67;;;7.83;;
16524;SDS011;8375;33.594;-117.718;2022-12-18T07:53:32;10.30;;;7.00;;
16524;SDS011;8375;33.594;-117.718;2022-12-18T07:56:03;11.03;;;7.63;;
16524;SDS011;8375;33.594;-117.718;2022-12-18T07:58:33;11.77;;;7.53;;
16524;SDS011;8375;33.594;-117.718;2022-12-18T08:01:03;11.80;;;7.43;;
16524;SDS011;8375;33.594;-117.718;2022-12-18T08:03:32;9.40;;;6.90;;
16524;SDS011;8375;33.594;-117.718;2022-12-18T08:06:03;11.70;;;6.73;;
16524;SDS011;8375;33.594;-117.718;2022-12-18T08:08:33;8.93;;;6.80;;
16524;SDS011;8375;33.594;-117.718;2022-12-18T08:11:02;9.73;;;6.53;;
16524;SDS011;8375;33.594;-117.718;2022-12-18T08:13:31;8.57;;;6.10;;
16524;SDS011;8375;33.594;-117.718;2022-12-18T08:16:00;16.40;;;6.83;;
16524;SDS011;8375;33.594;-117.718;2022-12-18T08:18:32;11.13;;;6.73;;
16524;SDS011;8375;33.594;-117.718;2022-12-18T08:21:09;8.87;;;6.60;;
16524;SDS011;8375;33.594;-117.718;2022-12-18T08:23:38;11.33;;;6.60;;
16524;SDS011;8375;33.594;-117.718;2022-12-18T08:26:07;9.50;;;7.13;;
16524;SDS011;8375;33.594;-117.718;2022-12-18T08:28:35;12.20;;;6.73;;
16524;SDS011;8375;33.594;-117.718;2022-12-18T08:31:04;10.93;;;6.77;;
16524;SDS011;8375;33.594;-117.718;2022-12-18T08:33:33;10.10;;;6.30;;
16524;SDS011;8375;33.594;-117.718;2022-12-18T08:36:03;9.37;;;6.33;;
16524;SDS011;8375;33.594;-117.718;2022-12-18T08:38:34;10.83;;;6.37;;
16524;SDS011;8375;33.594;-117.718;2022-12-18T08:41:04;9.10;;;6.07;;
16524;SDS011;8375;33.594;-117.718;2022-12-18T08:43:34;8.27;;;5.37;;
16524;SDS011;8375;33.594;-117.718;2022-12-18T08:46:19;7.47;;;5.60;;
16524;SDS011;8375;33.594;-117.718;2022-12-18T08:48:50;8.70;;;5.50;;
16524;SDS011;8375;33.594;-117.718;2022-12-18T08:51:19;7.70;;;5.67;;
16524;SDS011;8375;33.594;-117.718;2022-12-18T08:53:50;8.07;;;5.57;;
16524;SDS011;8375;33.594;-117.718;2022-12-18T08:56:18;9.30;;;5.80;;
16524;SDS011;8375;33.594;-117.718;2022-12-18T08:58:47;8.97;;;6.57;;
16524;SDS011;8375;33.594;-117.718;2022-12-18T09:01:20;9.07;;;5.93;;
16524;SDS011;8375;33.594;-117.718;2022-12-18T09:03:49;10.70;;;7.70;;
16524;SDS011;8375;33.594;-117.718;2022-12-18T09:06:18;9.70;;;6.57;;
16524;SDS011;8375;33.594;-117.718;2022-12-18T09:08:50;9.63;;;6.43;;
16524;SDS011;8375;33.594;-117.718;2022-12-18T09:11:19;9.43;;;6.87;;
16524;SDS011;8375;33.594;-117.718;2022-12-18T09:13:49;11.07;;;7.37;;
16524;SDS011;8375;33.594;-117.718;2022-12-18T09:16:18;11.97;;;6.67;;
16524;SDS011;8375;33.594;-117.718;2022-12-18T09:18:47;11.77;;;6.57;;
16524;SDS011;8375;33.594;-117.718;2022-12-18T09:21:16;8.83;;;6.60;;
16524;SDS011;8375;33.594;-117.718;2022-12-18T09:23:50;12.97;;;7.57;;
16524;SDS011;8375;33.594;-117.718;2022-12-18T09:26:19;10.40;;;6.80;;
16524;SDS011;8375;33.594;-117.718;2022-12-18T09:28:48;8.47;;;5.77;;
16524;SDS011;8375;33.594;-117.718;2022-12-18T09:31:17;9.13;;;6.20;;
16524;SDS011;8375;33.594;-117.718;2022-12-18T09:33:47;9.83;;;7.07;;
16524;SDS011;8375;33.594;-117.718;2022-12-18T09:36:17;8.20;;;6.53;;
16524;SDS011;8375;33.594;-117.718;2022-12-18T09:38:46;11.50;;;5.70;;
16524;SDS011;8375;33.594;-117.718;2022-12-18T09:41:23;9.37;;;6.33;;
16524;SDS011;8375;33.594;-117.718;2022-12-18T09:44:20;7.63;;;5.70;;
16524;SDS011;8375;33.594;-117.718;2022-12-18T09:46:54;8.63;;;5.97;;
16524;SDS011;8375;33.594;-117.718;2022-12-18T09:49:37;8.20;;;6.50;;
16524;SDS011;8375;33.594;-117.718;2022-12-18T09:52:12;10.53;;;6.67;;
16524;SDS011;8375;33.594;-117.718;2022-12-18T09:54:45;9.57;;;6.87;;
16524;SDS011;8375;33.594;-117.718;2022-12-18T09:57:19;11.20;;;6.77;;
16524;SDS011;8375;33.594;-117.718;2022-12-18T09:59:51;10.67;;;7.03;;
16524;SDS011;8375;33.594;-117.718;2022-12-18T10:02:23;8.10;;;6.13;;
16524;SDS011;8375;33.594;-117.718;2022-12-18T10:04:56;8.40;;;6.50;;
16524;SDS011;8375;33.594;-117.718;2022-12-18T10:07:39;10.30;;;7.40;;
16524;SDS011;8375;33.594;-117.718;2022-12-18T10:10:19;10.10;;;6.70;;
16524;SDS011;8375;33.594;-117.718;2022-12-18T10:13:09;10.80;;;6.90;;
16524;SDS011;8375;33.594;-117.718;2022-12-18T10:15:50;8.93;;;6.87;;
16524;SDS011;8375;33.594;-117.718;2022-12-18T10:18:28;10.07;;;6.40;;
16524;SDS011;8375;33.594;-117.718;2022-12-18T10:21:09;8.07;;;5.90;;
16524;SDS011;8375;33.594;-117.718;2022-12-18T10:23:42;6.57;;;5.47;;
16524;SDS011;8375;33.594;-117.718;2022-12-18T10:26:19;7.10;;;5.60;;
16524;SDS011;8375;33.594;-117.718;2022-12-18T10:28:49;9.23;;;5.37;;
16524;SDS011;8375;33.594;-117.718;2022-12-18T10:31:22;7.73;;;5.00;;
16524;SDS011;8375;33.594;-117.718;2022-12-18T10:33:51;8.83;;;5.50;;
16524;SDS011;8375;33.594;-117.718;2022-12-18T10:36:22;6.40;;;4.77;;
16524;SDS011;8375;33.594;-117.718;2022-12-18T10:38:51;4.77;;;4.27;;
16524;SDS011;8375;33.594;-117.718;2022-12-18T10:41:24;4.90;;;3.43;;
16524;SDS011;8375;33.594;-117.718;2022-12-18T10:46:44;5.63;;;3.47;;
16524;SDS011;8375;33.594;-117.718;2022-12-18T10:49:22;5.77;;;3.13;;
16524;SDS011;8375;33.594;-117.718;2022-12-18T10:52:03;3.57;;;3.10;;
16524;SDS011;8375;33.594;-117.718;2022-12-18T10:54:34;4.07;;;3.10;;
16524;SDS011;8375;33.594;-117.718;2022-12-18T11:00:03;3.90;;;2.90;;
16524;SDS011;8375;33.594;-117.718;2022-12-18T11:02:55;4.87;;;3.13;;
16524;SDS011;8375;33.594;-117.718;2022-12-18T11:05:26;5.00;;;2.90;;
16524;SDS011;8375;33.594;-117.718;2022-12-18T11:07:56;5.60;;;2.67;;
16524;SDS011;8375;33.594;-117.718;2022-12-18T11:10:28;5.20;;;3.40;;
16524;SDS011;8375;33.594;-117.718;2022-12-18T11:13:09;5.23;;;2.67;;
16524;SDS011;8375;33.594;-117.718;2022-12-18T11:15:41;5.17;;;2.77;;
16524;SDS011;8375;33.594;-117.718;2022-12-18T11:18:17;3.80;;;3.03;;
16524;SDS011;8375;33.594;-117.718;2022-12-18T11:20:51;4.37;;;2.50;;
16524;SDS011;8375;33.594;-117.718;2022-12-18T11:23:23;5.03;;;2.60;;
16524;SDS011;8375;33.594;-117.718;2022-12-18T11:25:53;5.63;;;2.40;;
16524;SDS011;8375;33.594;-117.718;2022-12-18T11:31:23;4.20;;;2.87;;
16524;SDS011;8375;33.594;-117.718;2022-12-18T11:33:54;2.60;;;2.10;;
16524;SDS011;8375;33.594;-117.718;2022-12-18T11:36:29;4.40;;;2.70;;
16524;SDS011;8375;33.594;-117.718;2022-12-18T11:39:07;7.10;;;2.60;;
16524;SDS011;8375;33.594;-117.718;2022-12-18T11:41:45;3.47;;;2.87;;
16524;SDS011;8375;33.594;-117.718;2022-12-18T11:44:40;3.70;;;2.40;;
16524;SDS011;8375;33.594;-117.718;2022-12-18T11:47:18;4.50;;;2.43;;
16524;SDS011;8375;33.594;-117.718;2022-12-18T11:49:53;3.83;;;2.70;;
16524;SDS011;8375;33.594;-117.718;2022-12-18T11:52:26;3.83;;;2.80;;
16524;SDS011;8375;33.594;-117.718;2022-12-18T11:55:07;3.23;;;2.60;;
16524;SDS011;8375;33.594;-117.718;2022-12-18T11:57:42;6.57;;;3.00;;
16524;SDS011;8375;33.594;-117.718;2022-12-18T12:00:22;4.27;;;2.50;;
16524;SDS011;8375;33.594;-117.718;2022-12-18T12:06:06;2.97;;;2.50;;
16524;SDS011;8375;33.594;-117.718;2022-12-18T12:08:44;5.83;;;3.13;;
16524;SDS011;8375;33.594;-117.718;2022-12-18T12:11:22;5.17;;;2.93;;
16524;SDS011;8375;33.594;-117.718;2022-12-18T12:14:01;5.17;;;2.63;;
16524;SDS011;8375;33.594;-117.718;2022-12-18T12:16:45;6.20;;;3.10;;
16524;SDS011;8375;33.594;-117.718;2022-12-18T12:19:23;4.43;;;2.83;;
16524;SDS011;8375;33.594;-117.718;2022-12-18T12:22:03;9.30;;;2.60;;
16524;SDS011;8375;33.594;-117.718;2022-12-18T12:24:45;5.70;;;3.27;;
16524;SDS011;8375;33.594;-117.718;2022-12-18T12:27:26;3.80;;;2.80;;
16524;SDS011;8375;33.594;-117.718;2022-12-18T12:30:16;3.63;;;2.87;;
16524;SDS011;8375;33.594;-117.718;2022-12-18T12:32:53;3.50;;;2.80;;
16524;SDS011;8375;33.594;-117.718;2022-12-18T12:35:37;4.77;;;2.70;;
16524;SDS011;8375;33.594;-117.718;2022-12-18T12:38:15;2.63;;;2.43;;
16524;SDS011;8375;33.594;-117.718;2022-12-18T12:40:49;5.60;;;2.70;;
16524;SDS011;8375;33.594;-117.718;2022-12-18T12:43:24;2.73;;;2.43;;
16524;SDS011;8375;33.594;-117.718;2022-12-18T12:45:57;3.87;;;2.60;;
16524;SDS011;8375;33.594;-117.718;2022-12-18T12:48:32;3.40;;;2.50;;
16524;SDS011;8375;33.594;-117.718;2022-12-18T12:51:12;6.03;;;2.80;;
16524;SDS011;8375;33.594;-117.718;2022-12-18T12:53:44;3.67;;;2.43;;
16524;SDS011;8375;33.594;-117.718;2022-12-18T12:56:14;4.33;;;2.43;;
16524;SDS011;8375;33.594;-117.718;2022-12-18T12:58:49;4.70;;;2.70;;
16524;SDS011;8375;33.594;-117.718;2022-12-18T13:01:27;3.93;;;2.47;;
16524;SDS011;8375;33.594;-117.718;2022-12-18T13:04:08;2.80;;;2.47;;
16524;SDS011;8375;33.594;-117.718;2022-12-18T13:06:53;3.60;;;2.30;;
16524;SDS011;8375;33.594;-117.718;2022-12-18T13:09:29;4.43;;;2.70;;
16524;SDS011;8375;33.594;-117.718;2022-12-18T13:12:01;3.67;;;2.83;;
16524;SDS011;8375;33.594;-117.718;2022-12-18T13:14:48;3.43;;;2.60;;
16524;SDS011;8375;33.594;-117.718;2022-12-18T13:17:27;3.23;;;2.27;;
16524;SDS011;8375;33.594;-117.718;2022-12-18T13:20:08;3.90;;;2.10;;
16524;SDS011;8375;33.594;-117.718;2022-12-18T13:22:41;2.97;;;2.20;;
16524;SDS011;8375;33.594;-117.718;2022-12-18T13:25:26;4.73;;;2.50;;
16524;SDS011;8375;33.594;-117.718;2022-12-18T13:28:04;3.93;;;2.20;;
16524;SDS011;8375;33.594;-117.718;2022-12-18T13:30:46;6.37;;;3.50;;
16524;SDS011;8375;33.594;-117.718;2022-12-18T13:36:27;5.23;;;3.10;;
16524;SDS011;8375;33.594;-117.718;2022-12-18T13:41:52;3.93;;;2.43;;
16524;SDS011;8375;33.594;-117.718;2022-12-18T13:45:01;3.40;;;2.50;;
16524;SDS011;8375;33.594;-117.718;2022-12-18T13:47:50;4.67;;;2.80;;
16524;SDS011;8375;33.594;-117.718;2022-12-18T13:50:20;4.63;;;3.07;;
16524;SDS011;8375;33.594;-117.718;2022-12-18T13:52:53;3.53;;;3.00;;
16524;SDS011;8375;33.594;-117.718;2022-12-18T13:55:23;5.20;;;3.53;;
16524;SDS011;8375;33.594;-117.718;2022-12-18T13:58:03;5.43;;;3.53;;
16524;SDS011;8375;33.594;-117.718;2022-12-18T14:00:32;4.53;;;2.90;;
16524;SDS011;8375;33.594;-117.718;2022-12-18T14:03:01;6.87;;;3.30;;
16524;SDS011;8375;33.594;-117.718;2022-12-18T14:05:30;4.30;;;3.10;;
16524;SDS011;8375;33.594;-117.718;2022-12-18T14:08:01;3.70;;;3.27;;
16524;SDS011;8375;33.594;-117.718;2022-12-18T14:10:34;5.27;;;3.77;;
16524;SDS011;8375;33.594;-117.718;2022-12-18T14:13:08;3.73;;;3.10;;
16524;SDS011;8375;33.594;-117.718;2022-12-18T14:15:39;5.53;;;3.90;;
16524;SDS011;8375;33.594;-117.718;2022-12-18T14:18:15;6.07;;;3.43;;
16524;SDS011;8375;33.594;-117.718;2022-12-18T14:20:48;5.23;;;4.03;;
16524;SDS011;8375;33.594;-117.718;2022-12-18T14:23:26;7.00;;;3.93;;
16524;SDS011;8375;33.594;-117.718;2022-12-18T14:25:58;7.10;;;4.23;;
16524;SDS011;8375;33.594;-117.718;2022-12-18T14:28:27;5.07;;;4.10;;
16524;SDS011;8375;33.594;-117.718;2022-12-18T14:30:57;5.30;;;3.80;;
16524;SDS011;8375;33.594;-117.718;2022-12-18T14:33:26;5.97;;;4.07;;
16524;SDS011;8375;33.594;-117.718;2022-12-18T14:35:56;5.50;;;4.30;;
16524;SDS011;8375;33.594;-117.718;2022-12-18T14:38:27;6.27;;;4.43;;
16524;SDS011;8375;33.594;-117.718;2022-12-18T14:41:00;5.37;;;4.23;;
16524;SDS011;8375;33.594;-117.718;2022-12-18T14:43:31;6.07;;;4.50;;
16524;SDS011;8375;33.594;-117.718;2022-12-18T14:46:01;6.53;;;3.73;;
16524;SDS011;8375;33.594;-117.718;2022-12-18T14:48:36;5.13;;;3.87;;
16524;SDS011;8375;33.594;-117.718;2022-12-18T14:51:12;4.73;;;3.60;;
16524;SDS011;8375;33.594;-117.718;2022-12-18T14:53:45;4.53;;;4.13;;
16524;SDS011;8375;33.594;-117.718;2022-12-18T14:56:18;6.40;;;4.10;;
16524;SDS011;8375;33.594;-117.718;2022-12-18T14:58:49;5.23;;;3.70;;
16524;SDS011;8375;33.594;-117.718;2022-12-18T15:01:21;6.50;;;4.33;;
16524;SDS011;8375;33.594;-117.718;2022-12-18T15:03:52;5.63;;;4.40;;
16524;SDS011;8375;33.594;-117.718;2022-12-18T15:06:25;4.10;;;3.70;;
16524;SDS011;8375;33.594;-117.718;2022-12-18T15:08:56;5.60;;;3.73;;